createdAt,value
2023-03-06T00:00:45.422Z,4.00
2023-03-06T00:01:27.560Z,3.80
2023-03-06T00:02:09.374Z,3.90
2023-03-06T00:02:52.176Z,4.10
2023-03-06T00:03:34.474Z,4.10
2023-03-06T00:04:16.254Z,4.00
2023-03-06T00:04:58.138Z,4.50
2023-03-06T00:05:40.337Z,3.90
2023-03-06T00:06:22.194Z,3.70
2023-03-06T00:07:06.024Z,3.80
2023-03-06T00:07:48.092Z,3.80
2023-03-06T00:08:30.452Z,3.60
2023-03-06T00:09:12.295Z,3.90
2023-03-06T00:09:54.112Z,4.40
2023-03-06T00:10:36.341Z,4.00
2023-03-06T00:11:18.183Z,3.90
2023-03-06T00:12:00.307Z,4.00
2023-03-06T00:12:42.603Z,3.90
2023-03-06T00:13:24.474Z,3.90
2023-03-06T00:14:06.262Z,3.80
2023-03-06T00:14:48.121Z,3.90
2023-03-06T00:15:30.765Z,4.00
2023-03-06T00:16:12.898Z,4.00
2023-03-06T00:16:58.677Z,4.00
2023-03-06T00:17:41.374Z,3.90
2023-03-06T00:18:23.215Z,6.00
2023-03-06T00:19:05.387Z,3.90
2023-03-06T00:19:47.203Z,3.80
2023-03-06T00:20:31.663Z,3.70
2023-03-06T00:21:13.484Z,3.80
2023-03-06T00:21:55.413Z,3.80
2023-03-06T00:22:37.526Z,3.60
2023-03-06T00:23:19.320Z,3.90
2023-03-06T00:24:01.138Z,3.90
2023-03-06T00:24:44.380Z,3.90
2023-03-06T00:25:26.587Z,3.90
2023-03-06T00:26:08.955Z,3.80
2023-03-06T00:26:53.165Z,3.80
2023-03-06T00:27:37.363Z,3.70
2023-03-06T00:28:21.530Z,3.70
2023-03-06T00:29:03.490Z,4.00
2023-03-06T00:29:45.589Z,4.40
2023-03-06T00:30:27.360Z,3.90
2023-03-06T00:31:11.196Z,3.70
2023-03-06T00:31:53.012Z,4.00
2023-03-06T00:32:34.990Z,3.90
2023-03-06T00:33:16.822Z,3.70
2023-03-06T00:33:58.748Z,4.00
2023-03-06T00:34:40.875Z,3.80
2023-03-06T00:35:22.914Z,3.80
2023-03-06T00:36:06.341Z,3.80
2023-03-06T00:36:48.422Z,3.80
2023-03-06T00:37:30.285Z,3.50
2023-03-06T00:38:12.795Z,3.70
2023-03-06T00:38:54.578Z,3.70
2023-03-06T00:39:37.005Z,3.80
2023-03-06T00:40:21.353Z,3.80
2023-03-06T00:41:11.287Z,3.80
2023-03-06T00:41:53.342Z,3.70
2023-03-06T00:42:35.546Z,3.70
2023-03-06T00:43:17.355Z,3.90
2023-03-06T00:44:01.476Z,3.60
2023-03-06T00:44:43.384Z,3.70
2023-03-06T00:45:25.312Z,3.80
2023-03-06T00:46:07.496Z,5.10
2023-03-06T00:46:51.751Z,3.70
2023-03-06T00:47:33.750Z,3.80
2023-03-06T00:48:15.583Z,3.90
2023-03-06T00:48:57.360Z,3.90
2023-03-06T00:49:39.542Z,4.00
2023-03-06T00:50:21.380Z,4.60
2023-03-06T00:51:03.260Z,3.60
2023-03-06T00:51:45.594Z,3.80
2023-03-06T00:52:27.404Z,3.70
2023-03-06T00:53:11.066Z,3.80
2023-03-06T00:53:52.828Z,3.90
2023-03-06T00:54:34.668Z,3.80
2023-03-06T00:55:16.572Z,3.70
2023-03-06T00:55:58.398Z,3.80
2023-03-06T00:56:40.224Z,4.10
2023-03-06T00:57:21.983Z,3.80
2023-03-06T00:58:03.923Z,3.70
2023-03-06T00:58:45.989Z,3.70
2023-03-06T00:59:27.893Z,3.90
2023-03-06T01:00:12.329Z,3.70
2023-03-06T01:00:54.113Z,3.70
2023-03-06T01:01:38.199Z,3.70
2023-03-06T01:02:20.653Z,4.00
2023-03-06T01:03:02.446Z,3.60
2023-03-06T01:03:46.623Z,3.70
2023-03-06T01:04:28.444Z,3.70
2023-03-06T01:05:13.743Z,3.70
2023-03-06T01:05:55.672Z,3.80
2023-03-06T01:06:37.523Z,3.80
2023-03-06T01:07:21.599Z,3.70
2023-03-06T01:08:05.013Z,3.70
2023-03-06T01:08:46.926Z,3.90
2023-03-06T01:09:31.712Z,3.70
2023-03-06T01:10:13.582Z,4.20
2023-03-06T01:10:55.550Z,3.90
2023-03-06T01:11:37.450Z,3.90
2023-03-06T01:12:20.496Z,3.90
2023-03-06T01:13:03.891Z,3.60
2023-03-06T01:13:45.747Z,3.80
2023-03-06T01:14:28.001Z,4.00
2023-03-06T01:15:12.602Z,3.60
2023-03-06T01:15:56.527Z,3.80
2023-03-06T01:16:38.533Z,3.70
2023-03-06T01:17:20.583Z,3.90
2023-03-06T01:18:02.435Z,3.60
2023-03-06T01:18:46.625Z,3.80
2023-03-06T01:19:28.541Z,4.30
2023-03-06T01:20:15.493Z,3.70
2023-03-06T01:20:59.676Z,3.90
2023-03-06T01:21:41.467Z,3.80
2023-03-06T01:22:23.291Z,3.90
2023-03-06T01:23:05.055Z,3.90
2023-03-06T01:23:47.510Z,3.90
2023-03-06T01:24:31.664Z,3.90
2023-03-06T01:25:13.701Z,3.70
2023-03-06T01:25:55.844Z,3.90
2023-03-06T01:26:37.684Z,3.90
2023-03-06T01:27:21.531Z,3.80
2023-03-06T01:28:03.520Z,3.80
2023-03-06T01:28:45.667Z,4.10
2023-03-06T01:29:27.698Z,3.80
2023-03-06T01:30:10.067Z,3.20
2023-03-06T01:30:52.192Z,3.80
2023-03-06T01:31:34.216Z,3.80
2023-03-06T01:32:18.681Z,3.60
2023-03-06T01:33:00.796Z,4.00
2023-03-06T01:33:42.664Z,3.70
2023-03-06T01:34:26.503Z,3.70
2023-03-06T01:35:08.815Z,3.50
2023-03-06T01:35:50.904Z,3.70
2023-03-06T01:36:32.657Z,3.80
2023-03-06T01:37:16.778Z,3.80
2023-03-06T01:37:58.645Z,3.60
2023-03-06T01:38:40.831Z,3.30
2023-03-06T01:39:22.708Z,3.90
2023-03-06T01:40:08.079Z,3.80
2023-03-06T01:40:49.988Z,3.80
2023-03-06T01:41:32.754Z,3.70
2023-03-06T01:42:14.912Z,3.80
2023-03-06T01:42:56.688Z,3.80
2023-03-06T01:43:42.211Z,3.90
2023-03-06T01:44:24.004Z,3.70
2023-03-06T01:45:30.882Z,3.90
2023-03-06T01:46:43.708Z,3.80
2023-03-06T01:47:25.696Z,3.80
2023-03-06T01:48:07.479Z,3.60
2023-03-06T01:48:55.078Z,3.70
2023-03-06T01:49:40.247Z,3.80
2023-03-06T01:50:22.151Z,3.60
2023-03-06T01:51:04.079Z,3.60
2023-03-06T01:52:08.122Z,3.80
2023-03-06T01:52:53.938Z,4.10
2023-03-06T01:53:36.768Z,4.00
2023-03-06T01:54:29.284Z,3.80
2023-03-06T01:55:15.891Z,3.90
2023-03-06T01:55:57.782Z,3.90
2023-03-06T01:56:43.071Z,2.60
2023-03-06T01:57:28.952Z,3.70
2023-03-06T01:58:15.701Z,3.80
2023-03-06T01:58:58.502Z,3.80
2023-03-06T01:59:42.846Z,3.80
2023-03-06T02:00:28.326Z,3.70
2023-03-06T02:01:12.436Z,3.70
2023-03-06T02:01:56.366Z,3.70
2023-03-06T02:02:40.292Z,5.10
2023-03-06T02:03:26.392Z,3.60
2023-03-06T02:04:09.225Z,3.80
2023-03-06T02:04:51.283Z,6.60
2023-03-06T02:05:33.965Z,3.80
2023-03-06T02:06:19.760Z,3.70
2023-03-06T02:07:47.222Z,4.00
2023-03-06T02:08:30.145Z,3.90
2023-03-06T02:09:13.008Z,3.90
2023-03-06T02:09:55.147Z,3.90
2023-03-06T02:10:37.024Z,3.80
2023-03-06T02:11:24.211Z,3.60
2023-03-06T02:12:12.893Z,3.90
2023-03-06T02:12:55.215Z,3.80
2023-03-06T02:13:38.163Z,3.70
2023-03-06T02:14:20.143Z,3.60
2023-03-06T02:15:02.103Z,3.70
2023-03-06T02:15:46.448Z,3.40
2023-03-06T02:16:30.984Z,3.50
2023-03-06T02:17:18.848Z,3.60
2023-03-06T02:18:01.330Z,3.70
2023-03-06T02:18:46.760Z,3.70
2023-03-06T02:19:34.138Z,3.70
2023-03-06T02:20:37.036Z,3.80
2023-03-06T02:21:33.099Z,3.60
2023-03-06T02:22:15.216Z,3.40
2023-03-06T02:23:20.325Z,3.60
2023-03-06T02:24:07.082Z,3.50
2023-03-06T02:24:57.147Z,4.10
2023-03-06T02:25:43.348Z,3.60
2023-03-06T02:26:26.811Z,3.70
2023-03-06T02:27:12.431Z,3.40
2023-03-06T02:27:54.303Z,3.30
2023-03-06T02:28:36.360Z,3.40
2023-03-06T02:29:24.992Z,3.50
2023-03-06T02:30:11.023Z,3.50
2023-03-06T02:30:54.535Z,3.50
2023-03-06T02:31:36.684Z,3.40
2023-03-06T02:32:18.623Z,3.60
2023-03-06T02:33:01.002Z,3.50
2023-03-06T02:33:42.757Z,3.50
2023-03-06T02:34:24.496Z,3.40
2023-03-06T02:35:07.205Z,3.40
2023-03-06T02:35:55.096Z,3.60
2023-03-06T02:36:45.534Z,3.50
2023-03-06T02:37:28.676Z,3.40
2023-03-06T02:38:54.532Z,3.30
2023-03-06T02:39:41.727Z,3.40
2023-03-06T02:40:26.140Z,3.40
2023-03-06T02:41:11.308Z,3.50
2023-03-06T02:41:53.090Z,3.50
2023-03-06T02:42:35.393Z,3.30
2023-03-06T02:43:21.164Z,4.10
2023-03-06T02:44:03.103Z,3.80
2023-03-06T02:44:45.394Z,3.40
2023-03-06T02:45:39.339Z,3.50
2023-03-06T02:46:21.227Z,3.50
2023-03-06T02:47:03.220Z,3.40
2023-03-06T02:47:45.363Z,3.40
2023-03-06T02:48:27.216Z,3.50
2023-03-06T02:49:11.290Z,3.50
2023-03-06T02:49:53.203Z,3.40
2023-03-06T02:50:35.398Z,3.50
2023-03-06T02:51:17.197Z,3.60
2023-03-06T02:52:01.496Z,3.60
2023-03-06T02:52:43.333Z,3.60
2023-03-06T02:53:25.101Z,3.50
2023-03-06T02:54:09.280Z,3.60
2023-03-06T02:54:51.111Z,3.70
2023-03-06T02:55:33.738Z,3.50
2023-03-06T02:56:15.871Z,3.40
2023-03-06T02:56:57.685Z,3.60
2023-03-06T02:57:39.494Z,3.60
2023-03-06T02:58:21.274Z,3.60
2023-03-06T02:59:03.202Z,3.50
2023-03-06T02:59:45.168Z,3.60
2023-03-06T03:00:28.799Z,3.50
2023-03-06T03:01:11.224Z,3.60
2023-03-06T03:01:53.305Z,3.40
2023-03-06T03:02:35.419Z,3.60
2023-03-06T03:03:18.329Z,3.90
2023-03-06T03:04:00.430Z,3.60
2023-03-06T03:04:42.244Z,3.60
2023-03-06T03:05:26.198Z,3.60
2023-03-06T03:06:08.440Z,3.60
2023-03-06T03:06:50.485Z,3.40
2023-03-06T03:07:32.420Z,1.90
2023-03-06T03:08:16.662Z,3.60
2023-03-06T03:08:58.718Z,3.70
2023-03-06T03:09:40.869Z,3.60
2023-03-06T03:10:22.796Z,3.30
2023-03-06T03:11:05.541Z,3.60
2023-03-06T03:11:47.345Z,3.60
2023-03-06T03:12:31.299Z,3.60
2023-03-06T03:13:13.206Z,5.50
2023-03-06T03:13:55.442Z,3.50
2023-03-06T03:14:37.309Z,3.50
2023-03-06T03:15:21.497Z,3.60
2023-03-06T03:16:06.232Z,3.50
2023-03-06T03:16:48.052Z,3.70
2023-03-06T03:17:29.872Z,3.80
2023-03-06T03:18:12.371Z,3.60
2023-03-06T03:18:56.693Z,3.60
2023-03-06T03:19:38.469Z,3.40
2023-03-06T03:20:22.341Z,4.00
2023-03-06T03:21:08.700Z,3.50
2023-03-06T03:21:50.456Z,3.50
2023-03-06T03:22:32.325Z,3.70
2023-03-06T03:23:14.075Z,3.60
2023-03-06T03:23:58.666Z,3.50
2023-03-06T03:24:40.617Z,3.00
2023-03-06T03:25:26.584Z,3.50
2023-03-06T03:26:20.536Z,3.60
2023-03-06T03:27:02.385Z,3.70
2023-03-06T03:27:46.580Z,3.40
2023-03-06T03:28:28.394Z,4.10
2023-03-06T03:29:10.793Z,3.60
2023-03-06T03:29:52.779Z,3.60
2023-03-06T03:30:34.598Z,3.70
2023-03-06T03:31:16.426Z,3.70
2023-03-06T03:31:58.428Z,3.60
2023-03-06T03:32:40.877Z,3.80
2023-03-06T03:33:22.673Z,3.90
2023-03-06T03:34:04.556Z,3.70
2023-03-06T03:34:46.326Z,3.60
2023-03-06T03:36:10.686Z,3.60
2023-03-06T03:36:52.463Z,3.60
2023-03-06T03:37:34.807Z,3.50
2023-03-06T03:38:16.567Z,3.80
2023-03-06T03:38:58.385Z,3.60
2023-03-06T03:39:42.293Z,3.60
2023-03-06T03:40:26.337Z,3.60
2023-03-06T03:41:08.464Z,3.20
2023-03-06T03:41:50.676Z,3.40
2023-03-06T03:42:32.457Z,3.80
2023-03-06T03:43:16.527Z,3.50
2023-03-06T03:43:58.489Z,3.50
2023-03-06T03:44:40.581Z,3.80
2023-03-06T03:45:22.545Z,3.20
2023-03-06T03:46:04.717Z,3.50
2023-03-06T03:46:46.612Z,3.60
2023-03-06T03:47:28.453Z,3.90
2023-03-06T03:48:10.736Z,3.60
2023-03-06T03:48:52.959Z,3.60
2023-03-06T03:49:34.766Z,3.70
2023-03-06T03:50:16.552Z,3.70
2023-03-06T03:51:08.679Z,3.60
2023-03-06T03:51:51.405Z,3.70
2023-03-06T03:52:33.176Z,3.50
2023-03-06T03:53:14.970Z,3.60
2023-03-06T03:53:58.112Z,3.80
2023-03-06T03:54:39.911Z,3.70
2023-03-06T03:55:21.855Z,3.60
2023-03-06T03:56:03.908Z,3.60
2023-03-06T03:56:45.778Z,3.60
2023-03-06T03:57:27.604Z,3.50
2023-03-06T03:58:11.500Z,4.30
2023-03-06T03:58:53.960Z,4.00
2023-03-06T03:59:36.130Z,3.70
2023-03-06T04:00:18.788Z,3.70
2023-03-06T04:01:01.225Z,3.70
2023-03-06T04:01:43.212Z,3.60
2023-03-06T04:02:25.671Z,3.70
2023-03-06T04:03:07.672Z,3.50
2023-03-06T04:03:49.550Z,3.60
2023-03-06T04:04:31.830Z,3.40
2023-03-06T04:05:14.980Z,4.80
2023-03-06T04:05:58.020Z,3.60
2023-03-06T04:06:39.887Z,4.40
2023-03-06T04:07:21.736Z,3.50
2023-03-06T04:08:03.652Z,3.60
2023-03-06T04:08:45.810Z,3.60
2023-03-06T04:09:27.843Z,3.50
2023-03-06T04:10:12.611Z,3.40
2023-03-06T04:10:55.016Z,3.90
2023-03-06T04:11:37.003Z,4.10
2023-03-06T04:12:18.817Z,3.60
2023-03-06T04:13:01.227Z,3.60
2023-03-06T04:13:43.112Z,3.50
2023-03-06T04:14:24.956Z,3.50
2023-03-06T04:15:07.983Z,3.50
2023-03-06T04:15:51.756Z,3.60
2023-03-06T04:16:33.964Z,3.70
2023-03-06T04:17:15.786Z,3.60
2023-03-06T04:17:57.715Z,3.70
2023-03-06T04:18:39.964Z,3.80
2023-03-06T04:19:23.869Z,3.60
2023-03-06T04:20:06.295Z,3.60
2023-03-06T04:20:49.118Z,3.50
2023-03-06T04:21:31.032Z,3.60
2023-03-06T04:22:12.978Z,3.70
2023-03-06T04:22:55.307Z,3.50
2023-03-06T04:23:37.099Z,3.80
2023-03-06T04:24:18.836Z,3.90
2023-03-06T04:25:01.356Z,3.50
2023-03-06T04:25:45.880Z,3.60
2023-03-06T04:26:27.952Z,3.50
2023-03-06T04:27:09.968Z,3.50
2023-03-06T04:27:54.427Z,3.90
2023-03-06T04:28:36.256Z,3.40
2023-03-06T04:29:18.357Z,3.30
2023-03-06T04:30:00.474Z,3.60
2023-03-06T04:30:43.003Z,3.50
2023-03-06T04:31:25.382Z,3.60
2023-03-06T04:32:07.463Z,3.50
2023-03-06T04:32:49.332Z,3.70
2023-03-06T04:33:31.265Z,3.60
2023-03-06T04:34:13.385Z,3.40
2023-03-06T04:34:55.575Z,3.40
2023-03-06T04:35:37.906Z,3.70
2023-03-06T04:36:33.756Z,3.60
2023-03-06T04:37:23.876Z,3.90
2023-03-06T04:38:06.254Z,3.50
2023-03-06T04:38:48.376Z,3.60
2023-03-06T04:39:30.501Z,3.60
2023-03-06T04:40:23.969Z,3.50
2023-03-06T04:41:05.891Z,3.50
2023-03-06T04:41:47.966Z,3.60
2023-03-06T04:42:30.400Z,3.70
2023-03-06T04:43:12.530Z,3.70
2023-03-06T04:43:54.458Z,3.40
2023-03-06T04:44:36.249Z,3.70
2023-03-06T04:45:18.049Z,3.70
2023-03-06T04:46:00.100Z,3.60
2023-03-06T04:46:41.948Z,3.60
2023-03-06T04:47:25.770Z,3.60
2023-03-06T04:48:08.064Z,3.40
2023-03-06T04:48:50.020Z,3.50
2023-03-06T04:49:34.133Z,3.50
2023-03-06T04:50:16.978Z,3.70
2023-03-06T04:51:01.073Z,3.70
2023-03-06T04:51:42.876Z,3.80
2023-03-06T04:52:25.048Z,3.70
2023-03-06T04:53:08.906Z,3.90
2023-03-06T04:53:50.761Z,3.60
2023-03-06T04:54:32.575Z,3.90
2023-03-06T04:55:16.096Z,3.70
2023-03-06T04:55:57.881Z,3.90
2023-03-06T04:56:40.073Z,3.60
2023-03-06T04:57:22.354Z,3.60
2023-03-06T04:58:04.307Z,4.40
2023-03-06T04:58:46.232Z,3.60
2023-03-06T04:59:28.453Z,3.60
2023-03-06T05:00:17.116Z,3.60
2023-03-06T05:01:01.372Z,3.70
2023-03-06T05:01:45.904Z,4.00
2023-03-06T05:02:28.151Z,3.70
2023-03-06T05:03:14.282Z,3.60
2023-03-06T05:03:56.226Z,3.60
2023-03-06T05:04:38.088Z,3.70
2023-03-06T05:05:20.073Z,3.80
2023-03-06T05:06:02.143Z,3.70
2023-03-06T05:06:44.039Z,3.70
2023-03-06T05:07:25.988Z,3.50
2023-03-06T05:08:11.033Z,3.40
2023-03-06T05:08:53.123Z,3.50
2023-03-06T05:09:36.847Z,3.70
2023-03-06T05:10:20.201Z,2.80
2023-03-06T05:11:02.746Z,3.70
2023-03-06T05:11:44.576Z,3.60
2023-03-06T05:12:26.728Z,3.60
2023-03-06T05:13:08.865Z,3.60
2023-03-06T05:13:51.577Z,3.60
2023-03-06T05:14:34.480Z,3.70
2023-03-06T05:15:19.555Z,3.70
2023-03-06T05:16:03.688Z,3.60
2023-03-06T05:16:45.711Z,3.50
2023-03-06T05:17:27.530Z,3.60
2023-03-06T05:18:09.472Z,3.70
2023-03-06T05:18:51.311Z,3.60
2023-03-06T05:20:17.726Z,3.60
2023-03-06T05:21:00.165Z,3.70
2023-03-06T05:21:44.553Z,3.40
2023-03-06T05:22:26.592Z,3.60
2023-03-06T05:23:11.354Z,3.10
2023-03-06T05:24:35.487Z,3.50
2023-03-06T05:25:17.427Z,3.60
2023-03-06T05:25:59.495Z,3.60
2023-03-06T05:26:41.360Z,3.50
2023-03-06T05:27:23.259Z,3.50
2023-03-06T05:28:05.251Z,3.50
2023-03-06T05:28:49.405Z,3.50
2023-03-06T05:29:31.360Z,3.40
2023-03-06T05:30:14.659Z,3.50
2023-03-06T05:30:56.479Z,3.50
2023-03-06T05:31:38.664Z,3.60
2023-03-06T05:32:21.701Z,3.60
2023-03-06T05:33:04.034Z,3.50
2023-03-06T05:33:45.823Z,3.50
2023-03-06T05:34:27.646Z,3.40
2023-03-06T05:35:17.410Z,3.60
2023-03-06T05:35:59.322Z,3.60
2023-03-06T05:36:41.316Z,3.40
2023-03-06T05:37:23.730Z,3.50
2023-03-06T05:38:05.814Z,3.50
2023-03-06T05:38:47.678Z,3.40
2023-03-06T05:39:29.515Z,3.50
2023-03-06T05:40:12.322Z,3.40
2023-03-06T05:40:54.228Z,3.60
2023-03-06T05:41:36.102Z,3.30
2023-03-06T05:42:18.443Z,3.40
2023-03-06T05:43:00.296Z,2.80
2023-03-06T05:43:42.256Z,3.40
2023-03-06T05:44:26.445Z,3.20
2023-03-06T05:45:11.145Z,3.40
2023-03-06T05:46:06.699Z,3.70
2023-03-06T05:46:50.269Z,3.50
2023-03-06T05:47:32.931Z,3.60
2023-03-06T05:48:14.837Z,3.40
2023-03-06T05:48:57.924Z,3.50
2023-03-06T05:49:40.376Z,3.50
2023-03-06T05:50:24.579Z,3.60
2023-03-06T05:51:06.583Z,3.50
2023-03-06T05:51:48.436Z,3.30
2023-03-06T05:52:30.372Z,3.30
2023-03-06T05:53:14.505Z,3.40
2023-03-06T05:53:56.300Z,3.50
2023-03-06T05:54:38.374Z,3.50
2023-03-06T05:55:21.818Z,3.50
2023-03-06T05:56:09.247Z,3.70
2023-03-06T05:56:51.375Z,3.60
2023-03-06T05:57:33.311Z,3.60
2023-03-06T05:58:15.418Z,3.50
2023-03-06T05:58:59.515Z,4.10
2023-03-06T05:59:41.325Z,3.50
2023-03-06T06:00:24.151Z,3.70
2023-03-06T06:01:25.400Z,3.50
2023-03-06T06:02:08.369Z,3.60
2023-03-06T06:02:50.477Z,3.50
2023-03-06T06:03:34.353Z,3.70
2023-03-06T06:04:16.188Z,3.60
2023-03-06T06:04:58.003Z,3.50
2023-03-06T06:05:40.490Z,3.30
2023-03-06T06:06:22.390Z,3.60
2023-03-06T06:07:05.982Z,3.60
2023-03-06T06:07:47.885Z,3.60
2023-03-06T06:08:29.718Z,3.70
2023-03-06T06:09:13.847Z,3.50
2023-03-06T06:09:55.847Z,3.40
2023-03-06T06:10:41.373Z,3.50
2023-03-06T06:11:23.597Z,3.20
2023-03-06T06:12:05.732Z,3.40
2023-03-06T06:12:47.570Z,3.70
2023-03-06T06:13:29.367Z,3.70
2023-03-06T06:14:11.254Z,3.50
2023-03-06T06:14:53.552Z,3.60
2023-03-06T06:15:35.555Z,3.60
2023-03-06T06:16:19.000Z,3.60
2023-03-06T06:17:01.412Z,3.60
2023-03-06T06:17:43.578Z,3.40
2023-03-06T06:18:25.674Z,3.50
2023-03-06T06:19:07.534Z,3.50
2023-03-06T06:19:51.723Z,3.60
2023-03-06T06:20:33.639Z,3.60
2023-03-06T06:21:15.799Z,3.60
2023-03-06T06:21:57.786Z,3.50
2023-03-06T06:22:39.591Z,3.50
2023-03-06T06:23:21.372Z,3.60
2023-03-06T06:24:03.788Z,3.50
2023-03-06T06:24:45.984Z,3.60
2023-03-06T06:25:27.981Z,3.50
2023-03-06T06:26:10.859Z,3.60
2023-03-06T06:26:54.729Z,3.60
2023-03-06T06:27:36.589Z,3.70
2023-03-06T06:28:18.656Z,3.50
2023-03-06T06:29:00.694Z,3.60
2023-03-06T06:29:44.609Z,4.00
2023-03-06T06:30:26.466Z,3.60
2023-03-06T06:31:12.795Z,3.60
2023-03-06T06:31:55.142Z,3.50
2023-03-06T06:32:40.347Z,3.10
2023-03-06T06:33:22.312Z,3.40
2023-03-06T06:34:05.820Z,3.50
2023-03-06T06:34:47.695Z,3.30
2023-03-06T06:35:31.974Z,3.40
2023-03-06T06:36:18.718Z,3.60
2023-03-06T06:37:00.615Z,3.60
2023-03-06T06:37:44.734Z,3.50
2023-03-06T06:38:26.558Z,3.50
2023-03-06T06:39:09.905Z,3.60
2023-03-06T06:39:52.151Z,3.60
2023-03-06T06:40:34.192Z,3.60
2023-03-06T06:41:42.314Z,3.50
2023-03-06T06:42:32.601Z,3.50
2023-03-06T06:43:17.085Z,3.50
2023-03-06T06:43:59.612Z,3.60
2023-03-06T06:44:41.417Z,3.60
2023-03-06T06:45:23.272Z,3.50
2023-03-06T06:46:38.780Z,3.60
2023-03-06T06:47:22.237Z,3.50
2023-03-06T06:48:07.687Z,3.40
2023-03-06T06:48:54.783Z,3.60
2023-03-06T06:49:37.184Z,3.60
2023-03-06T06:50:21.690Z,3.60
2023-03-06T06:51:06.821Z,3.60
2023-03-06T06:51:48.778Z,3.70
2023-03-06T06:52:30.746Z,3.60
2023-03-06T06:53:14.957Z,3.50
2023-03-06T06:53:56.868Z,3.60
2023-03-06T06:54:38.815Z,3.60
2023-03-06T06:55:20.794Z,3.60
2023-03-06T06:56:04.712Z,3.50
2023-03-06T06:56:46.622Z,3.60
2023-03-06T06:57:28.687Z,3.60
2023-03-06T06:58:10.532Z,3.90
2023-03-06T06:59:01.333Z,3.50
2023-03-06T06:59:53.973Z,3.60
2023-03-06T07:00:36.339Z,3.50
2023-03-06T07:01:18.644Z,3.50
2023-03-06T07:02:00.480Z,3.60
2023-03-06T07:02:42.331Z,3.50
2023-03-06T07:03:24.146Z,3.50
2023-03-06T07:04:06.541Z,3.50
2023-03-06T07:05:02.589Z,3.60
2023-03-06T07:05:46.009Z,3.60
2023-03-06T07:06:27.819Z,3.80
2023-03-06T07:07:11.973Z,3.70
2023-03-06T07:07:53.769Z,3.50
2023-03-06T07:08:36.144Z,3.60
2023-03-06T07:09:18.079Z,3.60
2023-03-06T07:10:02.220Z,3.90
2023-03-06T07:10:44.051Z,3.70
2023-03-06T07:11:26.026Z,3.70
2023-03-06T07:12:08.725Z,3.60
2023-03-06T07:12:51.072Z,3.60
2023-03-06T07:13:32.874Z,3.70
2023-03-06T07:14:16.746Z,3.80
2023-03-06T07:14:58.791Z,4.10
2023-03-06T07:15:41.137Z,4.10
2023-03-06T07:16:23.169Z,4.30
2023-03-06T07:17:05.051Z,4.00
2023-03-06T07:17:49.813Z,4.00
2023-03-06T07:18:32.001Z,4.00
2023-03-06T07:19:13.772Z,4.20
2023-03-06T07:19:56.048Z,3.90
2023-03-06T07:20:38.264Z,3.80
2023-03-06T07:21:20.113Z,3.80
2023-03-06T07:22:02.819Z,3.90
2023-03-06T07:22:51.206Z,4.00
2023-03-06T07:23:33.633Z,3.80
2023-03-06T07:24:15.545Z,3.80
2023-03-06T07:24:57.299Z,3.90
2023-03-06T07:25:39.436Z,4.10
2023-03-06T07:26:21.921Z,3.60
2023-03-06T07:27:03.879Z,3.80
2023-03-06T07:27:52.802Z,3.60
2023-03-06T07:28:49.822Z,3.80
2023-03-06T07:29:34.534Z,3.90
2023-03-06T07:30:16.880Z,3.90
2023-03-06T07:30:59.016Z,3.70
2023-03-06T07:31:41.347Z,3.90
2023-03-06T07:32:24.350Z,3.90
2023-03-06T07:33:08.860Z,3.90
2023-03-06T07:33:51.374Z,3.90
2023-03-06T07:34:33.454Z,3.80
2023-03-06T07:35:20.436Z,3.70
2023-03-06T07:36:02.698Z,3.80
2023-03-06T07:36:44.514Z,3.60
2023-03-06T07:37:27.927Z,3.60
2023-03-06T07:38:10.103Z,3.50
2023-03-06T07:38:51.920Z,3.60
2023-03-06T07:39:33.806Z,3.70
2023-03-06T07:40:15.785Z,3.50
2023-03-06T07:40:57.674Z,3.90
2023-03-06T07:41:39.465Z,3.80
2023-03-06T07:42:21.532Z,3.70
2023-03-06T07:43:18.404Z,3.70
2023-03-06T07:44:01.297Z,4.00
2023-03-06T07:44:43.141Z,3.80
2023-03-06T07:45:25.823Z,3.70
2023-03-06T07:46:08.608Z,3.90
2023-03-06T07:46:50.575Z,3.90
2023-03-06T07:47:32.334Z,3.80
2023-03-06T07:48:17.457Z,3.90
2023-03-06T07:48:59.337Z,4.10
2023-03-06T07:49:41.320Z,4.30
2023-03-06T07:50:23.334Z,4.00
2023-03-06T07:51:08.561Z,3.90
2023-03-06T07:51:50.318Z,4.00
2023-03-06T07:52:32.135Z,3.80
2023-03-06T07:53:13.952Z,3.90
2023-03-06T07:53:56.181Z,4.10
2023-03-06T07:54:38.137Z,3.80
2023-03-06T07:55:20.284Z,3.80
2023-03-06T07:56:08.900Z,4.20
2023-03-06T07:56:54.300Z,4.00
2023-03-06T07:57:39.596Z,3.70
2023-03-06T07:58:21.646Z,4.00
2023-03-06T07:59:03.586Z,3.90
2023-03-06T07:59:45.441Z,4.00
2023-03-06T08:00:27.314Z,4.10
2023-03-06T08:01:17.218Z,4.10
2023-03-06T08:01:59.002Z,4.10
2023-03-06T08:02:42.429Z,4.10
2023-03-06T08:03:24.346Z,4.10
2023-03-06T08:04:06.746Z,3.90
2023-03-06T08:04:55.659Z,4.10
2023-03-06T08:05:38.073Z,4.10
2023-03-06T08:06:27.306Z,4.10
2023-03-06T08:07:09.227Z,4.10
2023-03-06T08:07:51.411Z,4.20
2023-03-06T08:08:37.278Z,4.40
2023-03-06T08:09:19.040Z,4.20
2023-03-06T08:10:01.294Z,4.20
2023-03-06T08:10:49.036Z,4.00
2023-03-06T08:12:17.505Z,4.20
2023-03-06T08:12:59.317Z,3.80
2023-03-06T08:13:44.403Z,4.10
2023-03-06T08:14:26.786Z,4.20
2023-03-06T08:15:11.309Z,4.30
2023-03-06T08:15:53.145Z,4.20
2023-03-06T08:16:37.346Z,4.20
2023-03-06T08:17:19.230Z,3.90
2023-03-06T08:18:01.387Z,4.10
2023-03-06T08:18:45.144Z,4.40
2023-03-06T08:19:28.243Z,4.50
2023-03-06T08:20:11.319Z,4.40
2023-03-06T08:21:02.729Z,4.40
2023-03-06T08:21:44.594Z,4.60
2023-03-06T08:22:26.501Z,4.60
2023-03-06T08:23:08.381Z,4.50
2023-03-06T08:23:50.686Z,4.80
2023-03-06T08:24:33.817Z,4.50
2023-03-06T08:25:15.679Z,3.90
2023-03-06T08:26:02.409Z,4.80
2023-03-06T08:26:44.285Z,4.80
2023-03-06T08:27:26.526Z,5.00
2023-03-06T08:28:08.280Z,4.70
2023-03-06T08:28:52.434Z,4.80
2023-03-06T08:29:34.291Z,4.60
2023-03-06T08:30:16.473Z,4.60
2023-03-06T08:30:58.764Z,4.70
2023-03-06T08:31:43.130Z,4.80
2023-03-06T08:32:27.310Z,4.80
2023-03-06T08:33:09.162Z,4.70
2023-03-06T08:33:51.457Z,4.90
2023-03-06T08:34:33.302Z,4.80
2023-03-06T08:35:17.422Z,4.90
2023-03-06T08:36:00.711Z,4.90
2023-03-06T08:36:43.529Z,4.90
2023-03-06T08:37:27.999Z,4.90
2023-03-06T08:38:09.827Z,4.50
2023-03-06T08:38:52.691Z,4.50
2023-03-06T08:39:34.493Z,4.60
2023-03-06T08:40:16.460Z,4.90
2023-03-06T08:40:58.428Z,5.00
2023-03-06T08:41:42.234Z,5.00
2023-03-06T08:42:23.986Z,4.90
2023-03-06T08:43:08.553Z,4.50
2023-03-06T08:43:50.404Z,4.60
2023-03-06T08:44:32.360Z,4.50
2023-03-06T08:45:14.123Z,4.60
2023-03-06T08:45:57.785Z,4.70
2023-03-06T08:46:40.230Z,4.90
2023-03-06T08:47:24.335Z,4.80
2023-03-06T08:48:06.561Z,4.80
2023-03-06T08:48:48.447Z,4.70
2023-03-06T08:49:30.608Z,4.80
2023-03-06T08:50:12.630Z,4.90
2023-03-06T08:50:54.446Z,4.90
2023-03-06T08:51:36.554Z,4.80
2023-03-06T08:52:19.837Z,4.80
2023-03-06T08:53:04.597Z,4.90
2023-03-06T08:53:49.250Z,5.00
2023-03-06T08:54:31.975Z,4.90
2023-03-06T08:55:15.131Z,5.00
2023-03-06T08:55:59.627Z,4.60
2023-03-06T08:56:41.528Z,4.80
2023-03-06T08:57:23.911Z,5.00
2023-03-06T08:58:05.993Z,4.70
2023-03-06T08:58:48.580Z,5.10
2023-03-06T08:59:32.848Z,4.80
2023-03-06T09:00:17.543Z,4.90
2023-03-06T09:00:59.418Z,4.60
2023-03-06T09:01:44.432Z,4.70
2023-03-06T09:02:26.618Z,4.90
2023-03-06T09:03:08.441Z,4.80
2023-03-06T09:03:50.961Z,4.80
2023-03-06T09:04:32.741Z,4.90
2023-03-06T09:05:14.637Z,4.90
2023-03-06T09:05:56.600Z,4.80
2023-03-06T09:06:41.940Z,4.80
2023-03-06T09:07:23.906Z,4.70
2023-03-06T09:08:05.734Z,4.70
2023-03-06T09:08:47.758Z,4.50
2023-03-06T09:09:29.635Z,4.90
2023-03-06T09:10:17.385Z,4.80
2023-03-06T09:10:59.238Z,4.80
2023-03-06T09:11:41.060Z,4.60
2023-03-06T09:12:23.344Z,4.70
2023-03-06T09:13:05.163Z,4.60
2023-03-06T09:13:49.581Z,5.00
2023-03-06T09:14:31.962Z,4.90
2023-03-06T09:15:15.039Z,4.90
2023-03-06T09:15:57.153Z,4.70
2023-03-06T09:16:39.065Z,4.80
2023-03-06T09:17:20.939Z,6.00
2023-03-06T09:18:02.818Z,4.80
2023-03-06T09:18:44.738Z,4.70
2023-03-06T09:19:26.664Z,4.80
2023-03-06T09:20:10.884Z,5.00
2023-03-06T09:20:52.688Z,5.00
2023-03-06T09:21:34.514Z,5.10
2023-03-06T09:22:17.029Z,5.20
2023-03-06T09:22:59.030Z,5.40
2023-03-06T09:23:41.032Z,5.30
2023-03-06T09:24:22.824Z,5.20
2023-03-06T09:25:05.870Z,5.10
2023-03-06T09:25:55.601Z,5.30
2023-03-06T09:26:46.201Z,5.30
2023-03-06T09:27:28.702Z,5.30
2023-03-06T09:28:12.836Z,5.00
2023-03-06T09:28:54.758Z,5.50
2023-03-06T09:29:36.762Z,5.80
2023-03-06T09:30:19.062Z,5.60
2023-03-06T09:31:00.949Z,5.60
2023-03-06T09:31:42.831Z,5.90
2023-03-06T09:32:24.979Z,5.70
2023-03-06T09:33:07.217Z,6.10
2023-03-06T09:33:49.262Z,6.30
2023-03-06T09:34:30.984Z,6.10
2023-03-06T09:35:14.484Z,6.40
2023-03-06T09:35:59.853Z,6.30
2023-03-06T09:36:56.042Z,6.20
2023-03-06T09:37:39.204Z,6.20
2023-03-06T09:38:26.716Z,6.10
2023-03-06T09:39:09.245Z,6.10
2023-03-06T09:39:51.004Z,5.90
2023-03-06T09:40:59.240Z,6.10
2023-03-06T09:41:42.303Z,6.20